sensor_id;sensor_type;location;lat;lon;timestamp;temperature;humidity
17172;DHT22;8701;50.150;8.756;2023-11-22T00:03:57;6.60;99.90
17172;DHT22;8701;50.150;8.756;2023-11-22T00:08:00;6.50;99.90
17172;DHT22;8701;50.150;8.756;2023-11-22T00:12:03;6.40;99.90
17172;DHT22;8701;50.150;8.756;2023-11-22T00:16:06;6.30;99.90
17172;DHT22;8701;50.150;8.756;2023-11-22T00:20:11;6.30;99.90
17172;DHT22;8701;50.150;8.756;2023-11-22T00:24:15;6.20;99.90
17172;DHT22;8701;50.150;8.756;2023-11-22T00:28:17;6.10;99.90
17172;DHT22;8701;50.150;8.756;2023-11-22T00:32:19;6.00;99.90
17172;DHT22;8701;50.150;8.756;2023-11-22T00:36:21;6.00;99.90
17172;DHT22;8701;50.150;8.756;2023-11-22T00:40:28;6.00;99.90
17172;DHT22;8701;50.150;8.756;2023-11-22T00:44:30;6.00;99.90
17172;DHT22;8701;50.150;8.756;2023-11-22T00:48:32;6.00;99.90
17172;DHT22;8701;50.150;8.756;2023-11-22T00:52:35;5.90;99.90
17172;DHT22;8701;50.150;8.756;2023-11-22T00:56:38;5.80;99.90
17172;DHT22;8701;50.150;8.756;2023-11-22T01:00:41;5.80;99.90
17172;DHT22;8701;50.150;8.756;2023-11-22T01:04:43;5.80;99.90
17172;DHT22;8701;50.150;8.756;2023-11-22T01:08:46;5.70;99.90
17172;DHT22;8701;50.150;8.756;2023-11-22T01:12:51;5.70;99.90
17172;DHT22;8701;50.150;8.756;2023-11-22T01:16:54;5.70;99.90
17172;DHT22;8701;50.150;8.756;2023-11-22T01:20:56;5.60;99.90
17172;DHT22;8701;50.150;8.756;2023-11-22T01:24:58;5.60;99.90
17172;DHT22;8701;50.150;8.756;2023-11-22T01:29:03;5.60;99.90
17172;DHT22;8701;50.150;8.756;2023-11-22T01:33:06;5.60;99.90
17172;DHT22;8701;50.150;8.756;2023-11-22T01:37:08;5.60;99.90
17172;DHT22;8701;50.150;8.756;2023-11-22T01:41:10;5.50;99.90
17172;DHT22;8701;50.150;8.756;2023-11-22T01:45:15;5.50;99.90
17172;DHT22;8701;50.150;8.756;2023-11-22T01:49:19;5.50;99.90
17172;DHT22;8701;50.150;8.756;2023-11-22T01:53:22;5.50;99.90
17172;DHT22;8701;50.150;8.756;2023-11-22T01:57:24;5.40;99.90
17172;DHT22;8701;50.150;8.756;2023-11-22T02:01:28;5.40;99.90
17172;DHT22;8701;50.150;8.756;2023-11-22T02:16:18;5.30;99.90
17172;DHT22;8701;50.150;8.756;2023-11-22T02:20:22;5.30;99.90
17172;DHT22;8701;50.150;8.756;2023-11-22T02:24:26;5.20;99.90
17172;DHT22;8701;50.150;8.756;2023-11-22T02:28:28;5.20;99.90
17172;DHT22;8701;50.150;8.756;2023-11-22T02:32:31;5.20;99.90
17172;DHT22;8701;50.150;8.756;2023-11-22T02:36:34;5.10;99.90
17172;DHT22;8701;50.150;8.756;2023-11-22T02:40:37;5.00;99.90
17172;DHT22;8701;50.150;8.756;2023-11-22T02:44:39;5.00;99.90
17172;DHT22;8701;50.150;8.756;2023-11-22T02:48:42;5.00;99.90
17172;DHT22;8701;50.150;8.756;2023-11-22T02:52:46;4.90;99.90
17172;DHT22;8701;50.150;8.756;2023-11-22T02:56:49;4.90;99.90
17172;DHT22;8701;50.150;8.756;2023-11-22T03:00:52;4.90;99.90
17172;DHT22;8701;50.150;8.756;2023-11-22T03:04:55;4.90;99.90
17172;DHT22;8701;50.150;8.756;2023-11-22T03:08:57;4.80;99.90
17172;DHT22;8701;50.150;8.756;2023-11-22T03:13:01;4.70;99.90
17172;DHT22;8701;50.150;8.756;2023-11-22T03:17:05;4.70;99.90
17172;DHT22;8701;50.150;8.756;2023-11-22T03:21:07;4.70;99.90
17172;DHT22;8701;50.150;8.756;2023-11-22T03:25:11;4.70;99.90
17172;DHT22;8701;50.150;8.756;2023-11-22T03:29:15;4.70;99.90
17172;DHT22;8701;50.150;8.756;2023-11-22T03:33:19;4.60;99.90
17172;DHT22;8701;50.150;8.756;2023-11-22T03:37:21;4.50;99.90
17172;DHT22;8701;50.150;8.756;2023-11-22T03:41:23;4.50;99.90
17172;DHT22;8701;50.150;8.756;2023-11-22T03:45:27;4.60;99.90
17172;DHT22;8701;50.150;8.756;2023-11-22T03:49:29;4.60;99.90
17172;DHT22;8701;50.150;8.756;2023-11-22T03:53:31;4.50;99.90
17172;DHT22;8701;50.150;8.756;2023-11-22T03:57:33;4.40;99.90
17172;DHT22;8701;50.150;8.756;2023-11-22T04:01:37;4.40;99.90
17172;DHT22;8701;50.150;8.756;2023-11-22T04:05:41;4.40;99.90
17172;DHT22;8701;50.150;8.756;2023-11-22T04:09:44;4.30;99.90
17172;DHT22;8701;50.150;8.756;2023-11-22T04:13:46;4.30;99.90
17172;DHT22;8701;50.150;8.756;2023-11-22T04:17:49;4.30;99.90
17172;DHT22;8701;50.150;8.756;2023-11-22T04:21:55;4.30;99.90
17172;DHT22;8701;50.150;8.756;2023-11-22T04:25:57;4.30;99.90
17172;DHT22;8701;50.150;8.756;2023-11-22T04:30:00;4.20;99.90
17172;DHT22;8701;50.150;8.756;2023-11-22T04:34:03;4.20;99.90
17172;DHT22;8701;50.150;8.756;2023-11-22T04:38:06;4.20;99.90
17172;DHT22;8701;50.150;8.756;2023-11-22T04:42:08;4.10;99.90
17172;DHT22;8701;50.150;8.756;2023-11-22T04:46:10;4.10;99.90
17172;DHT22;8701;50.150;8.756;2023-11-22T04:50:14;4.10;99.90
17172;DHT22;8701;50.150;8.756;2023-11-22T04:54:16;4.00;99.90
17172;DHT22;8701;50.150;8.756;2023-11-22T04:58:18;4.00;99.90
17172;DHT22;8701;50.150;8.756;2023-11-22T05:02:20;4.00;99.90
17172;DHT22;8701;50.150;8.756;2023-11-22T05:06:24;4.00;99.90
17172;DHT22;8701;50.150;8.756;2023-11-22T05:10:27;4.00;99.90
17172;DHT22;8701;50.150;8.756;2023-11-22T05:14:29;4.00;99.90
17172;DHT22;8701;50.150;8.756;2023-11-22T05:18:31;4.00;99.90
17172;DHT22;8701;50.150;8.756;2023-11-22T05:22:35;3.90;99.90
17172;DHT22;8701;50.150;8.756;2023-11-22T05:26:37;3.90;99.90
17172;DHT22;8701;50.150;8.756;2023-11-22T05:30:39;3.90;99.90
17172;DHT22;8701;50.150;8.756;2023-11-22T05:34:42;3.90;99.90
17172;DHT22;8701;50.150;8.756;2023-11-22T05:38:45;3.80;99.90
17172;DHT22;8701;50.150;8.756;2023-11-22T05:42:47;3.80;99.90
17172;DHT22;8701;50.150;8.756;2023-11-22T05:46:49;3.80;99.90
17172;DHT22;8701;50.150;8.756;2023-11-22T05:50:52;3.70;99.90
17172;DHT22;8701;50.150;8.756;2023-11-22T05:54:55;3.70;99.90
17172;DHT22;8701;50.150;8.756;2023-11-22T05:58:58;3.70;99.90
17172;DHT22;8701;50.150;8.756;2023-11-22T06:03:01;3.60;99.90
17172;DHT22;8701;50.150;8.756;2023-11-22T06:07:03;3.60;99.90
17172;DHT22;8701;50.150;8.756;2023-11-22T06:11:07;3.60;99.90
17172;DHT22;8701;50.150;8.756;2023-11-22T06:15:09;3.50;99.90
17172;DHT22;8701;50.150;8.756;2023-11-22T06:19:12;3.40;99.90
17172;DHT22;8701;50.150;8.756;2023-11-22T06:23:14;3.40;99.90
17172;DHT22;8701;50.150;8.756;2023-11-22T06:27:17;3.40;99.90
17172;DHT22;8701;50.150;8.756;2023-11-22T06:31:19;3.40;99.90
17172;DHT22;8701;50.150;8.756;2023-11-22T06:35:21;3.40;99.90
17172;DHT22;8701;50.150;8.756;2023-11-22T06:39:24;3.30;99.90
17172;DHT22;8701;50.150;8.756;2023-11-22T06:43:27;3.30;99.90
17172;DHT22;8701;50.150;8.756;2023-11-22T06:47:29;3.30;99.90
17172;DHT22;8701;50.150;8.756;2023-11-22T06:51:31;3.30;99.90
17172;DHT22;8701;50.150;8.756;2023-11-22T06:55:34;3.50;99.90
17172;DHT22;8701;50.150;8.756;2023-11-22T06:59:37;3.50;99.90
17172;DHT22;8701;50.150;8.756;2023-11-22T07:03:39;3.50;99.90
17172;DHT22;8701;50.150;8.756;2023-11-22T07:07:41;3.50;99.90
17172;DHT22;8701;50.150;8.756;2023-11-22T07:11:44;3.40;99.90
17172;DHT22;8701;50.150;8.756;2023-11-22T07:15:47;3.40;99.90
17172;DHT22;8701;50.150;8.756;2023-11-22T07:19:51;3.40;99.90
17172;DHT22;8701;50.150;8.756;2023-11-22T07:23:54;3.40;99.90
17172;DHT22;8701;50.150;8.756;2023-11-22T07:27:56;3.50;99.90
17172;DHT22;8701;50.150;8.756;2023-11-22T07:32:01;3.70;99.90
17172;DHT22;8701;50.150;8.756;2023-11-22T07:36:04;3.70;99.90
17172;DHT22;8701;50.150;8.756;2023-11-22T07:40:07;3.70;99.90
17172;DHT22;8701;50.150;8.756;2023-11-22T07:44:10;3.70;99.90
17172;DHT22;8701;50.150;8.756;2023-11-22T07:48:14;3.80;99.90
17172;DHT22;8701;50.150;8.756;2023-11-22T07:52:17;3.90;99.90
17172;DHT22;8701;50.150;8.756;2023-11-22T07:56:19;3.90;99.90
17172;DHT22;8701;50.150;8.756;2023-11-22T08:00:21;3.90;99.90
17172;DHT22;8701;50.150;8.756;2023-11-22T08:04:25;3.90;99.90
17172;DHT22;8701;50.150;8.756;2023-11-22T08:08:27;3.90;99.90
17172;DHT22;8701;50.150;8.756;2023-11-22T08:12:29;3.90;99.90
17172;DHT22;8701;50.150;8.756;2023-11-22T08:16:32;4.00;99.90
17172;DHT22;8701;50.150;8.756;2023-11-22T08:20:40;4.10;99.90
17172;DHT22;8701;50.150;8.756;2023-11-22T08:24:42;4.10;99.90
17172;DHT22;8701;50.150;8.756;2023-11-22T08:28:45;4.20;99.90
17172;DHT22;8701;50.150;8.756;2023-11-22T08:32:47;4.30;99.90
17172;DHT22;8701;50.150;8.756;2023-11-22T08:36:56;4.30;99.90
17172;DHT22;8701;50.150;8.756;2023-11-22T08:40:58;4.50;99.90
17172;DHT22;8701;50.150;8.756;2023-11-22T08:45:01;4.60;99.90
17172;DHT22;8701;50.150;8.756;2023-11-22T08:49:03;4.70;99.90
17172;DHT22;8701;50.150;8.756;2023-11-22T08:53:08;4.90;99.90
17172;DHT22;8701;50.150;8.756;2023-11-22T08:57:10;5.00;99.90
17172;DHT22;8701;50.150;8.756;2023-11-22T09:01:13;5.10;99.90
17172;DHT22;8701;50.150;8.756;2023-11-22T09:05:15;5.20;99.90
17172;DHT22;8701;50.150;8.756;2023-11-22T09:09:19;5.20;99.90
17172;DHT22;8701;50.150;8.756;2023-11-22T09:13:24;5.20;99.90
17172;DHT22;8701;50.150;8.756;2023-11-22T09:17:26;5.20;99.90
17172;DHT22;8701;50.150;8.756;2023-11-22T09:21:28;5.10;99.90
17172;DHT22;8701;50.150;8.756;2023-11-22T09:25:32;5.20;99.90
17172;DHT22;8701;50.150;8.756;2023-11-22T09:29:36;5.30;99.90
17172;DHT22;8701;50.150;8.756;2023-11-22T09:33:38;5.40;99.90
17172;DHT22;8701;50.150;8.756;2023-11-22T09:37:40;5.60;99.90
17172;DHT22;8701;50.150;8.756;2023-11-22T09:41:44;5.60;99.90
17172;DHT22;8701;50.150;8.756;2023-11-22T09:45:48;5.50;99.90
17172;DHT22;8701;50.150;8.756;2023-11-22T09:49:51;5.50;99.90
17172;DHT22;8701;50.150;8.756;2023-11-22T09:53:56;5.40;99.90
17172;DHT22;8701;50.150;8.756;2023-11-22T09:58:01;5.40;99.90
17172;DHT22;8701;50.150;8.756;2023-11-22T10:02:04;5.40;99.90
17172;DHT22;8701;50.150;8.756;2023-11-22T10:06:08;5.30;99.90
17172;DHT22;8701;50.150;8.756;2023-11-22T10:10:11;5.30;99.90
17172;DHT22;8701;50.150;8.756;2023-11-22T10:14:24;5.30;99.90
17172;DHT22;8701;50.150;8.756;2023-11-22T10:18:28;5.30;99.90
17172;DHT22;8701;50.150;8.756;2023-11-22T10:22:43;5.30;99.90
17172;DHT22;8701;50.150;8.756;2023-11-22T10:26:46;5.30;99.90
17172;DHT22;8701;50.150;8.756;2023-11-22T10:30:50;5.20;99.90
17172;DHT22;8701;50.150;8.756;2023-11-22T10:34:53;5.30;99.90
17172;DHT22;8701;50.150;8.756;2023-11-22T10:38:55;5.50;99.90
17172;DHT22;8701;50.150;8.756;2023-11-22T10:42:59;5.50;99.90
17172;DHT22;8701;50.150;8.756;2023-11-22T10:47:03;5.50;99.90
17172;DHT22;8701;50.150;8.756;2023-11-22T10:51:13;5.60;99.90
17172;DHT22;8701;50.150;8.756;2023-11-22T10:55:17;5.60;99.90
17172;DHT22;8701;50.150;8.756;2023-11-22T10:59:26;5.50;99.90
17172;DHT22;8701;50.150;8.756;2023-11-22T11:03:37;5.50;99.90
17172;DHT22;8701;50.150;8.756;2023-11-22T11:07:49;5.50;99.90
17172;DHT22;8701;50.150;8.756;2023-11-22T11:11:52;5.40;99.90
17172;DHT22;8701;50.150;8.756;2023-11-22T11:15:56;5.50;99.90
17172;DHT22;8701;50.150;8.756;2023-11-22T11:20:00;5.60;99.90
17172;DHT22;8701;50.150;8.756;2023-11-22T11:24:02;5.60;99.90
17172;DHT22;8701;50.150;8.756;2023-11-22T11:28:05;5.60;99.90
17172;DHT22;8701;50.150;8.756;2023-11-22T11:32:10;5.60;99.90
17172;DHT22;8701;50.150;8.756;2023-11-22T11:36:21;5.60;99.90
17172;DHT22;8701;50.150;8.756;2023-11-22T11:40:25;5.60;99.90
17172;DHT22;8701;50.150;8.756;2023-11-22T11:44:28;5.70;99.90
17172;DHT22;8701;50.150;8.756;2023-11-22T11:48:30;5.80;99.90
17172;DHT22;8701;50.150;8.756;2023-11-22T11:52:34;5.80;99.90
17172;DHT22;8701;50.150;8.756;2023-11-22T11:56:36;5.90;99.90
17172;DHT22;8701;50.150;8.756;2023-11-22T12:00:39;6.00;99.90
17172;DHT22;8701;50.150;8.756;2023-11-22T12:04:42;6.00;99.90
17172;DHT22;8701;50.150;8.756;2023-11-22T12:08:46;6.00;99.90
17172;DHT22;8701;50.150;8.756;2023-11-22T12:12:48;6.00;99.90
17172;DHT22;8701;50.150;8.756;2023-11-22T12:16:51;6.00;99.90
17172;DHT22;8701;50.150;8.756;2023-11-22T12:20:55;6.00;99.90
17172;DHT22;8701;50.150;8.756;2023-11-22T12:25:00;6.00;99.90
17172;DHT22;8701;50.150;8.756;2023-11-22T12:29:02;6.00;99.90
17172;DHT22;8701;50.150;8.756;2023-11-22T12:33:05;6.00;99.90
17172;DHT22;8701;50.150;8.756;2023-11-22T12:37:08;5.80;99.90
17172;DHT22;8701;50.150;8.756;2023-11-22T12:41:11;5.90;99.90
17172;DHT22;8701;50.150;8.756;2023-11-22T12:45:20;6.00;99.90
17172;DHT22;8701;50.150;8.756;2023-11-22T12:49:25;6.10;99.90
17172;DHT22;8701;50.150;8.756;2023-11-22T12:53:27;6.20;99.90
17172;DHT22;8701;50.150;8.756;2023-11-22T12:57:31;6.10;99.90
17172;DHT22;8701;50.150;8.756;2023-11-22T13:01:34;6.20;99.90
17172;DHT22;8701;50.150;8.756;2023-11-22T13:05:37;6.20;99.90
17172;DHT22;8701;50.150;8.756;2023-11-22T13:09:39;6.20;99.90
17172;DHT22;8701;50.150;8.756;2023-11-22T13:13:42;6.30;99.90
17172;DHT22;8701;50.150;8.756;2023-11-22T13:17:45;6.30;99.90
17172;DHT22;8701;50.150;8.756;2023-11-22T13:21:47;6.50;99.90
17172;DHT22;8701;50.150;8.756;2023-11-22T13:25:50;6.70;99.90
17172;DHT22;8701;50.150;8.756;2023-11-22T13:29:54;6.60;99.90
17172;DHT22;8701;50.150;8.756;2023-11-22T13:33:57;6.50;99.90
17172;DHT22;8701;50.150;8.756;2023-11-22T13:38:00;6.50;99.90
17172;DHT22;8701;50.150;8.756;2023-11-22T13:42:03;6.50;99.90
17172;DHT22;8701;50.150;8.756;2023-11-22T13:46:06;6.70;99.90
17172;DHT22;8701;50.150;8.756;2023-11-22T13:50:11;6.70;99.90
17172;DHT22;8701;50.150;8.756;2023-11-22T13:54:15;6.70;99.90
17172;DHT22;8701;50.150;8.756;2023-11-22T13:58:18;6.80;99.90
17172;DHT22;8701;50.150;8.756;2023-11-22T14:02:21;6.80;99.90
17172;DHT22;8701;50.150;8.756;2023-11-22T14:06:24;6.80;99.90
17172;DHT22;8701;50.150;8.756;2023-11-22T14:10:26;6.80;99.90
17172;DHT22;8701;50.150;8.756;2023-11-22T14:14:29;6.70;99.90
17172;DHT22;8701;50.150;8.756;2023-11-22T14:18:33;6.50;99.90
17172;DHT22;8701;50.150;8.756;2023-11-22T14:22:36;6.50;99.90
17172;DHT22;8701;50.150;8.756;2023-11-22T14:26:38;6.30;99.90
17172;DHT22;8701;50.150;8.756;2023-11-22T14:30:41;6.30;99.90
17172;DHT22;8701;50.150;8.756;2023-11-22T14:34:45;6.20;99.90
17172;DHT22;8701;50.150;8.756;2023-11-22T14:38:47;6.20;99.90
17172;DHT22;8701;50.150;8.756;2023-11-22T14:42:55;6.10;99.90
17172;DHT22;8701;50.150;8.756;2023-11-22T14:46:57;6.10;99.90
17172;DHT22;8701;50.150;8.756;2023-11-22T14:51:01;6.00;99.90
17172;DHT22;8701;50.150;8.756;2023-11-22T14:55:04;5.90;99.90
17172;DHT22;8701;50.150;8.756;2023-11-22T14:59:07;6.00;99.90
17172;DHT22;8701;50.150;8.756;2023-11-22T15:03:09;5.90;99.90
17172;DHT22;8701;50.150;8.756;2023-11-22T15:07:13;5.80;99.90
17172;DHT22;8701;50.150;8.756;2023-11-22T15:11:15;5.60;99.90
17172;DHT22;8701;50.150;8.756;2023-11-22T15:15:19;5.60;99.90
17172;DHT22;8701;50.150;8.756;2023-11-22T15:19:22;5.50;99.90
17172;DHT22;8701;50.150;8.756;2023-11-22T15:23:29;5.50;99.90
17172;DHT22;8701;50.150;8.756;2023-11-22T15:27:31;5.50;99.90
17172;DHT22;8701;50.150;8.756;2023-11-22T15:31:34;5.40;99.90
17172;DHT22;8701;50.150;8.756;2023-11-22T15:35:36;5.30;99.90
17172;DHT22;8701;50.150;8.756;2023-11-22T15:39:40;5.20;99.90
17172;DHT22;8701;50.150;8.756;2023-11-22T15:43:43;5.10;99.90
17172;DHT22;8701;50.150;8.756;2023-11-22T15:47:45;5.00;99.90
17172;DHT22;8701;50.150;8.756;2023-11-22T15:51:48;5.00;99.90
17172;DHT22;8701;50.150;8.756;2023-11-22T15:55:51;5.00;99.90
17172;DHT22;8701;50.150;8.756;2023-11-22T15:59:54;5.00;99.90
17172;DHT22;8701;50.150;8.756;2023-11-22T16:03:56;5.00;99.90
17172;DHT22;8701;50.150;8.756;2023-11-22T16:07:58;4.90;99.90
17172;DHT22;8701;50.150;8.756;2023-11-22T16:12:01;4.90;99.90
17172;DHT22;8701;50.150;8.756;2023-11-22T16:16:04;4.90;99.90
17172;DHT22;8701;50.150;8.756;2023-11-22T16:20:08;5.00;99.90
17172;DHT22;8701;50.150;8.756;2023-11-22T16:24:12;5.00;99.90
17172;DHT22;8701;50.150;8.756;2023-11-22T16:28:15;5.00;99.90
17172;DHT22;8701;50.150;8.756;2023-11-22T16:32:18;4.90;99.90
17172;DHT22;8701;50.150;8.756;2023-11-22T16:36:20;4.90;99.90
17172;DHT22;8701;50.150;8.756;2023-11-22T16:40:23;4.80;99.90
17172;DHT22;8701;50.150;8.756;2023-11-22T16:44:26;4.70;99.90
17172;DHT22;8701;50.150;8.756;2023-11-22T16:48:29;4.70;99.90
17172;DHT22;8701;50.150;8.756;2023-11-22T16:52:32;4.60;99.90
17172;DHT22;8701;50.150;8.756;2023-11-22T16:56:34;4.60;99.90
17172;DHT22;8701;50.150;8.756;2023-11-22T17:00:38;4.60;99.90
17172;DHT22;8701;50.150;8.756;2023-11-22T17:04:40;4.60;99.90
17172;DHT22;8701;50.150;8.756;2023-11-22T17:08:43;4.50;99.90
17172;DHT22;8701;50.150;8.756;2023-11-22T17:12:45;4.30;99.90
17172;DHT22;8701;50.150;8.756;2023-11-22T17:16:49;4.30;99.90
17172;DHT22;8701;50.150;8.756;2023-11-22T17:20:52;4.20;99.90
17172;DHT22;8701;50.150;8.756;2023-11-22T17:24:57;4.20;99.90
17172;DHT22;8701;50.150;8.756;2023-11-22T17:28:59;4.20;99.90
17172;DHT22;8701;50.150;8.756;2023-11-22T17:33:03;4.10;99.90
17172;DHT22;8701;50.150;8.756;2023-11-22T17:37:05;4.20;99.90
17172;DHT22;8701;50.150;8.756;2023-11-22T17:41:07;4.20;99.90
17172;DHT22;8701;50.150;8.756;2023-11-22T17:45:09;4.20;99.90
17172;DHT22;8701;50.150;8.756;2023-11-22T17:49:13;4.30;99.90
17172;DHT22;8701;50.150;8.756;2023-11-22T17:53:15;4.30;99.90
17172;DHT22;8701;50.150;8.756;2023-11-22T17:57:18;4.30;99.90
17172;DHT22;8701;50.150;8.756;2023-11-22T18:01:21;4.30;99.90
17172;DHT22;8701;50.150;8.756;2023-11-22T18:05:25;4.20;99.90
17172;DHT22;8701;50.150;8.756;2023-11-22T18:09:28;4.20;99.90
17172;DHT22;8701;50.150;8.756;2023-11-22T18:13:30;4.10;99.90
17172;DHT22;8701;50.150;8.756;2023-11-22T18:17:33;4.10;99.90
17172;DHT22;8701;50.150;8.756;2023-11-22T18:21:36;4.00;99.90
17172;DHT22;8701;50.150;8.756;2023-11-22T18:25:38;4.00;99.90
17172;DHT22;8701;50.150;8.756;2023-11-22T18:29:41;4.00;99.90
17172;DHT22;8701;50.150;8.756;2023-11-22T18:33:45;3.90;99.90
17172;DHT22;8701;50.150;8.756;2023-11-22T18:37:49;4.00;99.90
17172;DHT22;8701;50.150;8.756;2023-11-22T18:41:51;4.00;99.90
17172;DHT22;8701;50.150;8.756;2023-11-22T18:45:53;3.90;99.90
17172;DHT22;8701;50.150;8.756;2023-11-22T18:50:05;4.00;99.90
17172;DHT22;8701;50.150;8.756;2023-11-22T18:54:09;4.00;99.90
17172;DHT22;8701;50.150;8.756;2023-11-22T18:58:11;4.00;99.90
17172;DHT22;8701;50.150;8.756;2023-11-22T19:02:14;3.90;99.90
17172;DHT22;8701;50.150;8.756;2023-11-22T19:06:17;3.80;99.90
17172;DHT22;8701;50.150;8.756;2023-11-22T19:10:20;3.90;99.90
17172;DHT22;8701;50.150;8.756;2023-11-22T19:14:23;3.90;99.90
17172;DHT22;8701;50.150;8.756;2023-11-22T19:18:27;3.90;99.90
17172;DHT22;8701;50.150;8.756;2023-11-22T19:22:30;3.90;99.90
17172;DHT22;8701;50.150;8.756;2023-11-22T19:26:34;3.90;99.90
17172;DHT22;8701;50.150;8.756;2023-11-22T19:30:36;3.80;99.90
17172;DHT22;8701;50.150;8.756;2023-11-22T19:34:39;3.90;99.90
17172;DHT22;8701;50.150;8.756;2023-11-22T19:38:41;3.90;99.90
17172;DHT22;8701;50.150;8.756;2023-11-22T19:42:45;3.90;99.90
17172;DHT22;8701;50.150;8.756;2023-11-22T19:46:47;4.00;99.90
17172;DHT22;8701;50.150;8.756;2023-11-22T19:50:49;4.00;99.90
17172;DHT22;8701;50.150;8.756;2023-11-22T19:54:52;4.00;99.90
17172;DHT22;8701;50.150;8.756;2023-11-22T19:58:55;4.00;99.90
17172;DHT22;8701;50.150;8.756;2023-11-22T20:02:57;3.90;99.90
17172;DHT22;8701;50.150;8.756;2023-11-22T20:07:01;4.00;99.90
17172;DHT22;8701;50.150;8.756;2023-11-22T20:11:03;3.90;99.90
17172;DHT22;8701;50.150;8.756;2023-11-22T20:15:09;3.90;99.90
17172;DHT22;8701;50.150;8.756;2023-11-22T20:19:11;3.90;99.90
17172;DHT22;8701;50.150;8.756;2023-11-22T20:23:14;3.90;99.90
17172;DHT22;8701;50.150;8.756;2023-11-22T20:27:18;3.80;99.90
17172;DHT22;8701;50.150;8.756;2023-11-22T20:31:22;3.70;99.90
17172;DHT22;8701;50.150;8.756;2023-11-22T20:35:25;3.60;99.90
17172;DHT22;8701;50.150;8.756;2023-11-22T20:39:27;3.60;99.90
17172;DHT22;8701;50.150;8.756;2023-11-22T20:43:30;3.60;99.90
17172;DHT22;8701;50.150;8.756;2023-11-22T20:47:34;3.60;99.90
17172;DHT22;8701;50.150;8.756;2023-11-22T20:51:36;3.60;99.90
17172;DHT22;8701;50.150;8.756;2023-11-22T20:55:38;3.60;99.90
17172;DHT22;8701;50.150;8.756;2023-11-22T20:59:40;3.60;99.90
17172;DHT22;8701;50.150;8.756;2023-11-22T21:03:44;3.60;99.90
17172;DHT22;8701;50.150;8.756;2023-11-22T21:07:46;3.50;99.90
17172;DHT22;8701;50.150;8.756;2023-11-22T21:11:48;3.60;99.90
17172;DHT22;8701;50.150;8.756;2023-11-22T21:15:50;3.50;99.90
17172;DHT22;8701;50.150;8.756;2023-11-22T21:19:54;3.50;99.90
17172;DHT22;8701;50.150;8.756;2023-11-22T21:23:56;3.40;99.90
17172;DHT22;8701;50.150;8.756;2023-11-22T21:27:59;3.40;99.90
17172;DHT22;8701;50.150;8.756;2023-11-22T21:32:01;3.40;99.90
17172;DHT22;8701;50.150;8.756;2023-11-22T21:36:10;3.50;99.90
17172;DHT22;8701;50.150;8.756;2023-11-22T21:40:13;3.50;99.90
17172;DHT22;8701;50.150;8.756;2023-11-22T21:44:15;3.50;99.90
17172;DHT22;8701;50.150;8.756;2023-11-22T21:48:18;3.50;99.90
17172;DHT22;8701;50.150;8.756;2023-11-22T21:52:22;3.50;99.90
17172;DHT22;8701;50.150;8.756;2023-11-22T21:56:24;3.40;99.90
17172;DHT22;8701;50.150;8.756;2023-11-22T22:00:26;3.60;99.90
17172;DHT22;8701;50.150;8.756;2023-11-22T22:04:28;3.60;99.90
17172;DHT22;8701;50.150;8.756;2023-11-22T22:08:32;3.70;99.90
17172;DHT22;8701;50.150;8.756;2023-11-22T22:12:34;3.70;99.90
17172;DHT22;8701;50.150;8.756;2023-11-22T22:16:36;3.70;99.90
17172;DHT22;8701;50.150;8.756;2023-11-22T22:20:40;3.70;99.90
17172;DHT22;8701;50.150;8.756;2023-11-22T22:24:44;3.80;99.90
17172;DHT22;8701;50.150;8.756;2023-11-22T22:28:46;3.80;99.90
17172;DHT22;8701;50.150;8.756;2023-11-22T22:32:48;3.80;99.90
17172;DHT22;8701;50.150;8.756;2023-11-22T22:36:51;3.70;99.90
17172;DHT22;8701;50.150;8.756;2023-11-22T22:40:54;3.70;99.90
17172;DHT22;8701;50.150;8.756;2023-11-22T22:44:56;3.70;99.90
17172;DHT22;8701;50.150;8.756;2023-11-22T22:48:58;3.60;99.90
17172;DHT22;8701;50.150;8.756;2023-11-22T22:53:01;3.60;99.90
17172;DHT22;8701;50.150;8.756;2023-11-22T22:57:04;3.70;99.90
17172;DHT22;8701;50.150;8.756;2023-11-22T23:01:10;3.60;99.90
17172;DHT22;8701;50.150;8.756;2023-11-22T23:05:12;3.60;99.90
17172;DHT22;8701;50.150;8.756;2023-11-22T23:09:14;3.70;99.90
17172;DHT22;8701;50.150;8.756;2023-11-22T23:13:18;3.70;99.90
17172;DHT22;8701;50.150;8.756;2023-11-22T23:17:20;3.60;99.90
17172;DHT22;8701;50.150;8.756;2023-11-22T23:21:22;3.60;99.90
17172;DHT22;8701;50.150;8.756;2023-11-22T23:25:24;3.60;99.90
17172;DHT22;8701;50.150;8.756;2023-11-22T23:29:28;3.60;99.90
17172;DHT22;8701;50.150;8.756;2023-11-22T23:33:31;3.50;99.90
17172;DHT22;8701;50.150;8.756;2023-11-22T23:37:34;3.50;99.90
17172;DHT22;8701;50.150;8.756;2023-11-22T23:41:36;3.40;99.90
17172;DHT22;8701;50.150;8.756;2023-11-22T23:45:40;3.40;99.90
17172;DHT22;8701;50.150;8.756;2023-11-22T23:49:44;3.40;99.90
17172;DHT22;8701;50.150;8.756;2023-11-22T23:53:47;3.40;99.90
17172;DHT22;8701;50.150;8.756;2023-11-22T23:57:49;3.40;99.90
